Time;durP1;ratioP1;P1;durP2;ratioP2;P2;SDS_P1;SDS_P2;PMS_P1;PMS_P2;Temp;Humidity;BMP_temperature;BMP_pressure;BME280_temperature;BME280_humidity;BME280_pressure;Samples;Min_cycle;Max_cycle;Signal;HPM_P1;HPM_P2
2022/03/06 08:19:35;;;;;;;14.00;8.27;;;;;;;0.49;75.34;99508.25;5122448;27;21104;-82
2022/03/06 08:22:03;;;;;;;19.77;8.20;;;;;;;0.55;71.32;99502.44;5071124;28;20049;-83
2022/03/06 08:24:31;;;;;;;15.83;7.60;;;;;;;0.71;71.37;99504.84;5067173;28;20044;-83
2022/03/06 08:26:59;;;;;;;15.63;8.37;;;;;;;0.91;70.07;99511.38;5069521;28;20045;-82
2022/03/06 08:29:26;;;;;;;17.30;8.17;;;;;;;1.02;69.81;99514.13;5070010;28;20045;-82
2022/03/06 08:31:53;;;;;;;13.50;7.40;;;;;;;1.09;69.33;99506.47;5067440;28;20447;-82
2022/03/06 08:34:20;;;;;;;16.80;8.57;;;;;;;1.14;67.69;99514.16;5066754;28;20082;-83
2022/03/06 08:36:48;;;;;;;16.50;7.85;;;;;;;1.10;66.99;99492.13;5067774;28;20094;-82
2022/03/06 08:39:17;;;;;;;15.23;7.37;;;;;;;1.27;67.29;99512.25;5064992;28;20825;-83
2022/03/06 08:41:47;;;;;;;14.48;6.97;;;;;;;1.26;65.81;99488.28;5068589;28;20056;-83
2022/03/06 08:44:16;;;;;;;16.23;7.70;;;;;;;1.44;64.25;99494.88;5066396;28;20155;-81
2022/03/06 08:46:43;;;;;;;14.68;6.90;;;;;;;1.47;64.11;99488.44;5068280;28;20099;-82
2022/03/06 08:49:10;;;;;;;14.27;7.20;;;;;;;1.58;64.53;99502.72;5073047;28;20052;-81
2022/03/06 08:51:37;;;;;;;15.63;8.02;;;;;;;1.69;63.93;99514.44;5072656;28;20083;-82
2022/03/06 08:54:05;;;;;;;14.45;7.75;;;;;;;1.79;63.66;99503.84;5065979;28;20055;-82
2022/03/06 08:56:32;;;;;;;11.93;5.40;;;;;;;1.64;63.84;99490.69;5066627;28;20459;-83
2022/03/06 08:58:59;;;;;;;16.13;7.63;;;;;;;1.90;65.71;99514.56;5066039;28;20071;-82
2022/03/06 09:01:26;;;;;;;16.00;7.90;;;;;;;1.93;63.30;99500.94;5066683;28;20076;-82
2022/03/06 09:03:53;;;;;;;13.10;7.15;;;;;;;1.88;62.34;99487.00;5064663;28;20055;-82
2022/03/06 09:06:20;;;;;;;19.00;9.05;;;;;;;1.97;62.42;99488.13;5066891;28;20048;-82
2022/03/06 09:08:46;;;;;;;15.70;7.45;;;;;;;2.07;62.50;99519.44;5067413;28;20136;-82
2022/03/06 09:11:15;;;;;;;18.10;8.80;;;;;;;2.09;62.12;99501.41;5080178;28;20048;-82
2022/03/06 09:13:41;;;;;;;21.45;8.93;;;;;;;2.11;61.54;99496.78;5066356;28;20052;-82
2022/03/06 09:16:08;;;;;;;21.77;8.10;;;;;;;2.24;60.52;99495.78;5065749;28;20048;-81
2022/03/06 09:18:35;;;;;;;17.13;7.78;;;;;;;2.16;60.17;99490.19;5067951;28;20044;-81
2022/03/06 09:21:02;;;;;;;15.43;7.88;;;;;;;2.30;59.64;99501.53;5067568;28;20073;-83
2022/03/06 09:23:28;;;;;;;13.95;7.22;;;;;;;2.24;59.07;99498.47;5065039;28;20068;-83
2022/03/06 09:25:55;;;;;;;17.08;7.70;;;;;;;2.36;58.78;99496.63;5065604;28;20076;-83
2022/03/06 09:28:23;;;;;;;16.20;6.65;;;;;;;2.34;59.58;99477.13;5063759;28;20136;-82
2022/03/06 09:30:50;;;;;;;16.73;7.68;;;;;;;2.57;57.13;99477.91;5052892;28;20049;-83
2022/03/06 09:33:17;;;;;;;19.55;8.05;;;;;;;2.56;56.30;99471.72;5051347;28;20082;-83
2022/03/06 09:35:44;;;;;;;18.33;7.55;;;;;;;2.58;55.34;99487.69;5060407;28;20098;-83
2022/03/06 09:38:10;;;;;;;13.15;7.18;;;;;;;2.58;57.15;99475.09;5052438;28;20135;-83
2022/03/06 09:40:44;;;;;;;18.25;7.47;;;;;;;2.67;52.89;99467.28;5052632;28;20099;-83
2022/03/06 09:43:16;;;;;;;16.27;7.90;;;;;;;2.78;53.85;99478.81;5045409;28;20045;-83
2022/03/06 09:45:45;;;;;;;14.52;7.22;;;;;;;2.79;51.39;99468.94;5051928;28;20076;-82
2022/03/06 09:48:13;;;;;;;14.35;6.53;;;;;;;3.04;51.71;99480.31;5052085;28;20099;-83
2022/03/06 09:50:40;;;;;;;12.85;6.68;;;;;;;3.18;51.74;99480.84;5051166;28;20128;-83
2022/03/06 09:53:07;;;;;;;12.30;5.50;;;;;;;3.21;48.01;99481.56;5050244;28;20045;-83
2022/03/06 09:55:34;;;;;;;11.85;6.68;;;;;;;3.11;49.23;99482.34;5049530;28;20052;-83
2022/03/06 09:58:01;;;;;;;10.45;5.28;;;;;;;3.25;46.88;99474.97;5052208;28;20041;-83
2022/03/06 10:00:28;;;;;;;7.63;4.63;;;;;;;3.32;47.47;99481.53;5052382;28;20053;-82
2022/03/06 10:02:58;;;;;;;11.38;5.40;;;;;;;3.78;47.93;99474.88;5052564;28;20056;-83
2022/03/06 10:05:31;;;;;;;9.32;5.57;;;;;;;3.79;45.71;99484.63;5051110;28;20057;-83
2022/03/06 10:08:25;;;;;;;11.98;6.13;;;;;;;3.78;47.13;99485.63;5052288;28;20555;-84
2022/03/06 10:10:55;;;;;;;15.07;6.43;;;;;;;3.92;47.59;99464.75;5051939;28;20044;-84
2022/03/06 10:13:28;;;;;;;12.20;6.38;;;;;;;4.26;47.51;99481.47;5048396;28;20084;-82
2022/03/06 10:16:09;;;;;;;13.23;6.10;;;;;;;4.41;44.22;99463.91;5051478;28;20060;-81
2022/03/06 10:18:40;;;;;;;7.78;4.93;;;;;;;4.58;43.62;99475.00;5050473;28;20124;-82
2022/03/06 10:21:20;;;;;;;9.60;4.85;;;;;;;4.64;44.77;99484.34;5052559;28;20083;-83
2022/03/06 10:23:48;;;;;;;11.45;5.70;;;;;;;4.86;44.05;99484.09;5052510;28;20549;-83
2022/03/06 10:26:19;;;;;;;10.55;5.80;;;;;;;4.81;43.08;99469.38;5050806;28;20131;-83
2022/03/06 10:28:57;;;;;;;7.68;4.82;;;;;;;4.83;45.16;99497.84;5052185;28;20056;-83
2022/03/06 10:31:25;;;;;;;13.73;6.60;;;;;;;4.73;42.51;99468.22;5051157;28;20144;-83
2022/03/06 10:33:59;;;;;;;10.85;6.22;;;;;;;4.89;43.28;99456.91;5050951;28;20091;-83
2022/03/06 10:36:44;;;;;;;10.40;5.47;;;;;;;5.12;42.47;99467.41;5053149;28;20043;-83
2022/03/06 10:39:17;;;;;;;10.55;5.78;;;;;;;5.12;42.64;99470.09;5048664;28;20048;-83
2022/03/06 10:41:57;;;;;;;10.10;5.97;;;;;;;5.17;43.68;99483.97;5050245;28;20095;-83
2022/03/06 10:44:46;;;;;;;11.45;6.32;;;;;;;5.20;43.15;99464.00;5051480;28;20492;-83
2022/03/06 10:47:17;;;;;;;10.45;5.65;;;;;;;5.15;42.58;99467.13;5051752;28;20074;-83
2022/03/06 10:50:02;;;;;;;10.32;5.57;;;;;;;5.18;43.19;99471.34;5048360;28;20096;-83
2022/03/06 10:52:34;;;;;;;18.75;6.05;;;;;;;5.42;42.49;99471.75;5050333;28;20152;-83
2022/03/06 10:55:11;;;;;;;10.32;5.93;;;;;;;5.61;41.28;99468.16;5051964;28;20051;-83
2022/03/06 11:00:24;;;;;;;13.10;7.18;;;;;;;5.20;41.69;99450.50;5049919;28;20057;-84
2022/03/06 11:03:13;;;;;;;10.27;5.75;;;;;;;5.11;41.66;99460.28;5050099;28;20049;-83
2022/03/06 11:05:49;;;;;;;10.68;5.07;;;;;;;4.67;42.46;99459.88;5044017;28;20408;-83
2022/03/06 11:08:18;;;;;;;11.90;5.45;;;;;;;4.84;43.00;99466.41;5049230;28;20055;-83
2022/03/06 11:11:05;;;;;;;11.02;5.55;;;;;;;4.84;42.91;99471.78;5050680;28;20381;-83
2022/03/06 11:13:50;;;;;;;11.80;6.28;;;;;;;4.74;43.33;99456.47;5050922;28;20045;-83
2022/03/06 11:16:32;;;;;;;;;;;;;;;;;;;;;
2022/03/06 11:19:13;;;;;;;11.73;6.25;;;;;;;4.94;43.12;99473.47;5045092;28;20045;-83
2022/03/06 11:22:02;;;;;;;12.45;6.18;;;;;;;4.74;42.51;99469.94;5049914;28;20049;-82
2022/03/06 11:24:37;;;;;;;10.45;5.70;;;;;;;4.59;42.67;99458.72;5066953;28;20102;-83
2022/03/06 11:27:36;;;;;;;9.85;5.30;;;;;;;4.43;41.99;99461.94;5072202;28;20059;-83
2022/03/06 11:30:22;;;;;;;9.85;6.30;;;;;;;4.61;42.03;99450.50;5066232;28;20044;-83
2022/03/06 11:33:07;;;;;;;10.63;5.78;;;;;;;4.43;41.35;99472.69;5071323;28;20041;-84
2022/03/06 11:35:38;;;;;;;9.00;5.28;;;;;;;4.25;42.43;99455.53;5071373;28;20495;-84
2022/03/06 11:38:11;;;;;;;9.80;5.22;;;;;;;4.56;41.74;99459.00;5069586;28;20059;-84
2022/03/06 11:40:57;;;;;;;10.82;6.03;;;;;;;4.75;40.53;99447.38;5057741;28;20056;-85
2022/03/06 11:44:09;;;;;;;10.40;5.22;;;;;;;4.45;40.96;99450.19;5050571;28;20488;-85
2022/03/06 11:47:32;;;;;;;;;;;;;;;;;;;;;
2022/03/06 11:54:09;;;;;;;11.90;6.60;;;;;;;4.48;43.16;99431.06;5050005;28;20480;-84
2022/03/06 11:57:35;;;;;;;10.68;5.63;;;;;;;5.17;41.02;99431.94;5020770;28;20064;-84
2022/03/06 12:00:37;;;;;;;10.90;5.88;;;;;;;5.53;40.70;99448.34;5029126;28;20044;-84
2022/03/06 12:05:57;;;;;;;12.05;6.82;;;;;;;5.48;40.31;99427.19;5041263;28;20511;-84
2022/03/06 12:08:29;;;;;;;8.95;5.25;;;;;;;5.70;39.75;99438.63;5050530;28;20057;-84
2022/03/06 12:11:32;;;;;;;;;;;;;;;;;;;;;
2022/03/06 12:14:20;;;;;;;8.55;4.93;;;;;;;5.87;38.62;99408.16;5046652;28;20060;-84
2022/03/06 12:17:37;;;;;;;9.20;5.55;;;;;;;6.19;37.61;99429.34;5052194;28;20059;-85
2022/03/06 12:20:54;;;;;;;11.02;6.05;;;;;;;6.38;37.95;99431.09;5049198;28;20133;-84
2022/03/06 12:23:35;;;;;;;9.75;5.53;;;;;;;6.65;36.95;99431.19;5047311;28;20060;-84
2022/03/06 12:26:32;;;;;;;;;;;;;;;;;;;;;
2022/03/06 12:29:04;;;;;;;8.15;5.18;;;;;;;6.45;37.17;99406.19;5049548;28;20048;-85
2022/03/06 12:35:42;;;;;;;5.88;3.80;;;;;;;6.47;37.02;99404.16;4945042;28;20247;-85
2022/03/06 12:38:30;;;;;;;8.57;5.70;;;;;;;6.49;38.65;99400.31;4998845;28;20061;-85
2022/03/06 12:41:20;;;;;;;11.95;5.63;;;;;;;6.72;37.68;99398.00;5050804;28;20053;-85
2022/03/06 12:43:50;;;;;;;13.77;7.15;;;;;;;7.02;37.38;99403.19;5051860;28;20484;-84
2022/03/06 12:46:18;;;;;;;13.80;6.03;;;;;;;6.64;37.20;99392.53;5052021;28;20045;-83
2022/03/06 12:48:49;;;;;;;18.95;5.57;;;;;;;6.95;36.89;99399.41;5058028;28;20044;-83
2022/03/06 12:51:38;;;;;;;10.45;5.95;;;;;;;7.26;35.67;99395.25;5052121;28;20106;-82
2022/03/06 12:54:18;;;;;;;9.70;6.50;;;;;;;7.11;37.18;99387.88;5050014;28;20041;-84
2022/03/06 12:56:45;;;;;;;9.20;5.93;;;;;;;6.77;38.13;99396.69;5054048;28;20045;-83
2022/03/06 12:59:16;;;;;;;11.45;5.85;;;;;;;6.57;39.29;99399.56;5056569;28;20045;-83
2022/03/06 13:01:44;;;;;;;7.20;3.05;;;;;;;5.43;39.82;99387.16;5049629;28;20588;-83
2022/03/06 13:04:11;;;;;;;12.68;6.15;;;;;;;5.74;40.51;99407.66;5048927;28;20056;-82
2022/03/06 13:06:39;;;;;;;7.38;4.65;;;;;;;5.48;40.70;99403.78;5053493;28;20041;-82
2022/03/06 13:09:08;;;;;;;6.97;4.35;;;;;;;5.50;40.35;99404.47;5053062;28;20045;-82
2022/03/06 13:11:37;;;;;;;3.95;2.75;;;;;;;5.17;40.75;99389.66;5047831;28;20468;-82
2022/03/06 13:14:06;;;;;;;12.48;6.28;;;;;;;5.35;40.82;99402.38;5061721;28;20464;-82
2022/03/06 13:16:33;;;;;;;9.52;5.90;;;;;;;5.42;41.56;99396.25;5054350;28;20474;-82
2022/03/06 13:19:02;;;;;;;7.18;4.28;;;;;;;5.27;41.10;99382.41;5065168;28;20546;-82
2022/03/06 13:21:30;;;;;;;11.55;5.47;;;;;;;5.13;40.96;99386.41;5066950;28;20143;-82
2022/03/06 13:23:59;;;;;;;12.52;6.13;;;;;;;5.47;41.32;99406.59;5055774;28;20060;-82
2022/03/06 13:26:32;;;;;;;10.40;5.43;;;;;;;5.47;41.42;99395.81;5070374;28;20060;-82
2022/03/06 13:29:00;;;;;;;9.13;5.32;;;;;;;5.48;40.60;99387.59;5057983;28;20139;-82
2022/03/06 13:31:27;;;;;;;7.85;4.28;;;;;;;5.20;40.91;99402.00;5061609;28;20133;-82
2022/03/06 13:34:01;;;;;;;9.20;5.47;;;;;;;5.20;41.44;99402.00;5054474;28;20045;-82
2022/03/06 13:36:30;;;;;;;10.50;5.40;;;;;;;5.25;42.20;99397.00;5052230;28;20049;-82
2022/03/06 13:39:02;;;;;;;10.27;6.03;;;;;;;5.30;41.31;99382.09;5051477;28;20476;-82
2022/03/06 13:41:30;;;;;;;11.63;6.38;;;;;;;5.60;42.03;99399.06;5052580;28;20063;-82
2022/03/06 13:43:57;;;;;;;11.88;6.30;;;;;;;5.64;41.10;99394.19;5051565;28;20465;-82
2022/03/06 13:46:26;;;;;;;9.25;5.07;;;;;;;5.45;41.41;99381.63;5052776;28;20048;-82
2022/03/06 13:49:07;;;;;;;10.00;5.80;;;;;;;5.29;41.12;99384.94;5051482;28;20033;-82
2022/03/06 13:51:34;;;;;;;7.35;4.20;;;;;;;4.96;42.02;99389.81;5052032;28;20057;-81
2022/03/06 13:54:05;;;;;;;10.55;6.38;;;;;;;4.90;41.79;99385.00;5053214;28;20047;-82
2022/03/06 13:56:35;;;;;;;12.00;6.18;;;;;;;4.95;42.09;99385.41;5052734;28;20083;-83
2022/03/06 13:59:02;;;;;;;;;;;;;;;5.05;42.26;99402.44;5051477;28;20397;-82
2022/03/06 14:01:28;;;;;;;13.55;6.82;;;;;;;4.82;43.21;99401.88;5052263;28;19974;-84
2022/03/06 14:04:09;;;;;;;12.10;6.18;;;;;;;4.64;42.69;99379.31;5050656;28;20084;-83
2022/03/06 14:06:50;;;;;;;11.75;6.75;;;;;;;4.82;42.09;99388.41;5045643;28;20480;-82
2022/03/06 14:09:28;;;;;;;10.27;6.25;;;;;;;5.02;42.16;99401.88;5052829;28;20045;-84
2022/03/06 14:12:20;;;;;;;13.20;6.45;;;;;;;4.86;42.59;99380.88;5053081;28;20518;-83
2022/03/06 14:14:49;;;;;;;10.18;6.13;;;;;;;4.80;42.32;99379.59;5048460;28;20151;-83
2022/03/06 14:17:17;;;;;;;11.00;6.47;;;;;;;4.90;42.11;99391.22;5051211;28;20516;-83
2022/03/06 14:19:58;;;;;;;8.27;5.45;;;;;;;4.77;42.14;99396.94;5051023;28;20311;-83
2022/03/06 14:22:24;;;;;;;;;;;;;;;4.85;42.03;99408.81;5051822;28;20049;-81
2022/03/06 14:24:51;;;;;;;11.20;5.45;;;;;;;4.68;41.94;99384.31;5050730;28;20056;-81
2022/03/06 14:27:19;;;;;;;11.07;5.68;;;;;;;4.66;42.45;99401.59;5053531;28;20049;-81
2022/03/06 14:29:46;;;;;;;10.25;5.93;;;;;;;4.81;42.36;99381.31;5051938;28;20326;-82
2022/03/06 14:32:13;;;;;;;12.38;6.75;;;;;;;5.00;41.94;99385.84;5055549;28;20515;-82
2022/03/06 14:34:39;;;;;;;9.20;5.40;;;;;;;4.95;42.75;99402.44;5054682;28;20086;-82
2022/03/06 14:37:06;;;;;;;9.60;5.32;;;;;;;4.75;41.89;99393.50;5056888;28;20076;-82
2022/03/06 14:39:37;;;;;;;10.48;6.00;;;;;;;4.71;43.14;99393.94;5062601;28;20116;-83
2022/03/06 14:42:15;;;;;;;11.95;5.78;;;;;;;4.67;42.22;99417.63;5054099;28;20140;-83
2022/03/06 14:44:52;;;;;;;13.07;5.90;;;;;;;4.72;42.12;99407.25;5052879;28;20071;-85
2022/03/06 14:47:22;;;;;;;9.40;6.30;;;;;;;4.73;42.52;99417.03;5057282;28;20139;-84
2022/03/06 14:50:46;;;;;;;13.52;6.40;;;;;;;4.68;42.14;99408.56;5056190;28;20041;-84
2022/03/06 14:53:22;;;;;;;13.85;6.15;;;;;;;4.72;42.93;99401.03;4992964;28;20045;-84
2022/03/06 14:55:56;;;;;;;9.95;5.88;;;;;;;4.57;43.15;99395.22;5052008;28;20139;-83
2022/03/06 14:58:27;;;;;;;11.45;5.78;;;;;;;4.71;43.16;99410.97;5051532;28;20052;-84
2022/03/06 15:00:59;;;;;;;11.77;6.35;;;;;;;4.85;42.61;99403.41;5051279;28;20041;-84
2022/03/06 15:03:31;;;;;;;11.75;5.55;;;;;;;4.74;42.10;99413.38;5055474;28;20060;-85
2022/03/06 15:05:58;;;;;;;8.88;5.18;;;;;;;4.53;42.16;99391.97;5052976;28;20566;-85
2022/03/06 15:08:30;;;;;;;9.45;5.20;;;;;;;4.50;43.76;99403.00;5052451;28;20045;-85
2022/03/06 15:10:59;;;;;;;8.48;5.35;;;;;;;4.27;43.39;99402.41;5051652;28;20079;-85
2022/03/06 15:13:27;;;;;;;12.30;6.50;;;;;;;4.01;43.64;99397.53;5050316;28;20063;-85
2022/03/06 15:16:31;;;;;;;12.95;6.05;;;;;;;4.00;44.10;99394.97;5050962;28;20055;-85
2022/03/06 15:19:09;;;;;;;6.82;5.25;;;;;;;4.11;43.75;99404.75;5040339;28;20053;-86
2022/03/06 15:21:38;;;;;;;10.02;5.93;;;;;;;3.99;43.57;99423.72;5051528;28;21540;-85
2022/03/06 15:24:12;;;;;;;10.18;5.50;;;;;;;3.96;44.27;99429.38;5050951;28;20060;-85
2022/03/06 15:26:44;;;;;;;11.05;6.25;;;;;;;3.98;45.78;99427.38;5051343;28;20059;-86
2022/03/06 15:29:17;;;;;;;12.40;6.45;;;;;;;3.98;45.62;99430.06;5056872;28;20040;-85
2022/03/06 15:31:50;;;;;;;13.13;6.85;;;;;;;3.89;45.31;99431.72;5053015;28;20057;-85
2022/03/06 15:34:40;;;;;;;13.00;7.20;;;;;;;3.85;45.94;99429.47;5049961;28;20099;-84
2022/03/06 15:37:15;;;;;;;10.90;5.85;;;;;;;3.74;45.37;99434.94;5051662;28;20049;-84
2022/03/06 15:39:46;;;;;;;11.02;6.53;;;;;;;3.69;44.61;99444.25;5050652;28;20492;-85
2022/03/06 15:42:27;;;;;;;11.25;6.82;;;;;;;3.50;45.84;99446.84;5052823;28;20052;-85
2022/03/06 15:44:58;;;;;;;10.60;6.70;;;;;;;3.42;45.47;99434.06;5050407;28;20068;-85
2022/03/06 15:47:29;;;;;;;10.63;6.65;;;;;;;3.39;45.28;99439.72;5050955;28;20098;-86
2022/03/06 15:50:05;;;;;;;11.20;5.95;;;;;;;3.40;45.81;99452.13;5058525;28;20055;-85
2022/03/06 15:52:32;;;;;;;10.85;6.10;;;;;;;3.47;46.33;99463.22;5052503;28;20160;-85
2022/03/06 15:54:59;;;;;;;12.50;6.55;;;;;;;3.49;46.53;99458.56;5048722;28;20052;-85
2022/03/06 15:57:28;;;;;;;13.63;6.93;;;;;;;3.40;45.98;99462.91;5050717;28;20049;-81
2022/03/06 15:59:57;;;;;;;13.48;6.65;;;;;;;3.27;46.35;99455.03;5051976;28;20507;-81
2022/03/06 16:02:26;;;;;;;9.88;6.05;;;;;;;3.19;45.75;99442.28;5052543;28;20060;-80
2022/03/06 16:04:55;;;;;;;12.95;6.63;;;;;;;3.10;46.31;99456.50;5051945;28;20518;-83
2022/03/06 16:07:38;;;;;;;18.88;7.15;;;;;;;3.02;47.35;99456.28;5052534;28;20053;-85
2022/03/06 16:10:09;;;;;;;11.80;6.38;;;;;;;3.10;46.23;99461.00;5051412;28;20124;-85
2022/03/06 16:12:47;;;;;;;12.15;6.13;;;;;;;3.06;46.77;99454.19;5052480;28;20056;-85
2022/03/06 16:15:16;;;;;;;11.82;6.65;;;;;;;2.92;47.76;99437.41;5048388;28;20037;-80
2022/03/06 16:17:47;;;;;;;11.07;6.78;;;;;;;2.95;47.33;99461.31;5050653;28;20045;-84
2022/03/06 16:20:14;;;;;;;12.88;7.35;;;;;;;2.90;47.54;99451.94;5044465;28;20045;-82
2022/03/06 16:22:42;;;;;;;20.45;10.80;;;;;;;2.78;48.55;99443.91;5047168;28;20076;-84
2022/03/06 16:25:09;;;;;;;11.45;6.93;;;;;;;2.82;47.93;99466.00;5051455;28;20055;-83
2022/03/06 16:27:36;;;;;;;9.68;6.25;;;;;;;2.83;46.54;99465.00;5047775;28;20080;-84
2022/03/06 16:30:06;;;;;;;12.43;6.88;;;;;;;2.64;46.81;99441.53;5046452;28;20107;-84
2022/03/06 16:32:32;;;;;;;10.70;6.25;;;;;;;2.80;46.49;99450.03;5050244;28;20053;-84
2022/03/06 16:35:03;;;;;;;14.23;6.90;;;;;;;2.79;46.78;99458.22;5048496;28;20045;-84
2022/03/06 16:37:32;;;;;;;14.35;7.38;;;;;;;2.70;46.31;99450.94;5052426;28;20143;-84
2022/03/06 16:40:05;;;;;;;9.75;6.35;;;;;;;2.73;48.41;99450.66;5052189;28;20044;-84
2022/03/06 16:42:32;;;;;;;11.82;6.75;;;;;;;2.86;48.08;99458.53;5050902;28;20453;-84
2022/03/06 16:45:02;;;;;;;11.52;6.80;;;;;;;2.83;46.80;99462.31;5049398;28;20124;-85
2022/03/06 16:47:33;;;;;;;12.13;6.85;;;;;;;2.87;46.50;99471.84;5053862;28;20041;-85
2022/03/06 16:50:05;;;;;;;13.88;7.35;;;;;;;2.73;46.73;99456.03;5051477;28;20419;-85
2022/03/06 16:52:32;;;;;;;11.30;6.63;;;;;;;2.81;46.49;99461.59;5053062;28;20488;-85
2022/03/06 16:54:59;;;;;;;9.45;6.63;;;;;;;2.77;46.76;99463.72;5053124;28;20056;-85
2022/03/06 16:57:26;;;;;;;10.50;6.97;;;;;;;2.71;47.00;99455.28;5055824;28;20458;-82
2022/03/06 16:59:53;;;;;;;13.77;7.07;;;;;;;2.65;47.35;99452.16;5047293;28;20060;-84
2022/03/06 17:02:21;;;;;;;10.43;6.15;;;;;;;2.61;47.84;99458.75;5048815;28;20098;-84
2022/03/06 17:04:50;;;;;;;14.38;6.20;;;;;;;2.62;48.53;99464.97;5048088;28;20071;-84
2022/03/06 17:07:19;;;;;;;10.00;6.35;;;;;;;2.48;49.37;99458.91;5053536;28;20414;-84
2022/03/06 17:09:48;;;;;;;17.42;9.57;;;;;;;2.58;47.99;99467.06;5063251;28;20506;-84
2022/03/06 17:12:15;;;;;;;11.77;6.60;;;;;;;2.47;49.12;99456.38;5052339;28;20520;-84
2022/03/06 17:14:47;;;;;;;11.13;6.43;;;;;;;2.46;47.62;99450.13;5047250;28;20310;-84
2022/03/06 17:17:19;;;;;;;10.80;6.50;;;;;;;2.46;47.34;99458.19;5050631;28;20041;-84
2022/03/06 17:19:52;;;;;;;11.95;6.45;;;;;;;2.37;48.02;99472.34;5049650;28;20140;-84
2022/03/06 17:22:23;;;;;;;9.93;7.28;;;;;;;2.33;47.47;99460.16;5055446;28;20077;-83
2022/03/06 17:24:50;;;;;;;11.07;7.10;;;;;;;2.29;48.13;99464.94;5053279;28;20105;-83
2022/03/06 17:27:17;;;;;;;12.10;6.82;;;;;;;2.30;47.92;99476.50;5051959;28;20060;-84
2022/03/06 17:29:50;;;;;;;11.32;6.18;;;;;;;2.21;47.80;99475.41;5054537;28;20132;-84
2022/03/06 17:32:20;;;;;;;10.98;6.65;;;;;;;2.22;47.57;99487.00;5051203;28;20051;-84
2022/03/06 17:34:47;;;;;;;8.55;6.65;;;;;;;2.20;47.11;99470.16;5049965;28;20516;-84
2022/03/06 17:37:20;;;;;;;13.18;6.75;;;;;;;2.29;47.98;99497.13;5050323;28;20053;-84
2022/03/06 17:39:50;;;;;;;8.25;6.05;;;;;;;2.17;47.80;99481.16;5035001;28;20467;-84
2022/03/06 17:42:23;;;;;;;11.48;7.03;;;;;;;2.19;47.25;99484.59;5049762;28;20037;-84
2022/03/06 17:44:52;;;;;;;12.52;6.75;;;;;;;2.12;47.33;99487.75;5050524;28;20044;-83
2022/03/06 17:47:25;;;;;;;11.32;7.05;;;;;;;2.16;47.97;99495.56;5050378;28;20045;-84
2022/03/06 17:49:52;;;;;;;13.27;6.85;;;;;;;2.17;47.98;99503.47;5048028;28;20064;-84
2022/03/06 17:52:22;;;;;;;9.18;6.28;;;;;;;2.03;47.42;99490.31;5050573;28;20480;-84
2022/03/06 17:54:52;;;;;;;12.90;6.88;;;;;;;2.19;49.34;99498.84;5051053;28;20464;-83
2022/03/06 17:57:25;;;;;;;9.40;6.25;;;;;;;2.18;48.80;99515.91;5050467;28;20087;-83
2022/03/06 17:59:52;;;;;;;11.43;6.47;;;;;;;2.13;47.19;99502.84;5050244;28;20488;-83
2022/03/06 18:02:20;;;;;;;22.63;12.07;;;;;;;2.09;48.22;99516.63;5047502;28;20041;-83
2022/03/06 18:04:53;;;;;;;9.93;6.85;;;;;;;2.09;48.48;99497.84;5048942;28;20092;-83
2022/03/06 18:07:22;;;;;;;14.52;6.63;;;;;;;2.07;48.14;99503.34;5050329;28;20077;-83
2022/03/06 18:09:49;;;;;;;10.60;5.47;;;;;;;1.98;48.01;99504.09;5049907;28;20076;-83
2022/03/06 18:12:16;;;;;;;9.88;7.05;;;;;;;2.09;48.11;99520.19;5047888;28;20044;-82
2022/03/06 18:14:43;;;;;;;11.55;6.53;;;;;;;2.08;48.15;99520.31;5049645;28;20060;-78
2022/03/06 18:17:13;;;;;;;15.00;6.55;;;;;;;2.01;48.21;99513.72;5050287;28;20143;-82
2022/03/06 18:19:40;;;;;;;7.57;5.63;;;;;;;1.92;48.85;99505.41;5048976;28;20443;-82
2022/03/06 18:22:10;;;;;;;8.00;5.47;;;;;;;2.00;48.34;99523.56;5049607;28;20512;-82
2022/03/06 18:24:41;;;;;;;11.45;7.10;;;;;;;1.95;48.51;99518.56;5041280;28;20119;-82
2022/03/06 18:27:08;;;;;;;10.73;6.68;;;;;;;2.00;48.60;99523.56;5049879;28;20056;-82
2022/03/06 18:29:37;;;;;;;11.40;6.63;;;;;;;2.03;48.09;99514.44;5038833;28;20543;-83
2022/03/06 18:32:10;;;;;;;8.98;6.03;;;;;;;2.04;48.48;99526.88;5049449;28;20095;-83
2022/03/06 18:34:40;;;;;;;15.85;6.47;;;;;;;1.94;49.26;99526.75;5047615;28;20049;-83
2022/03/06 18:37:07;;;;;;;10.75;5.07;;;;;;;1.87;49.23;99534.44;5050249;28;20091;-83
2022/03/06 18:39:34;;;;;;;7.93;6.07;;;;;;;1.92;48.38;99526.88;5048587;28;20057;-82
2022/03/06 18:42:03;;;;;;;8.45;6.22;;;;;;;1.89;48.44;99526.25;5049925;28;20399;-83
2022/03/06 18:44:30;;;;;;;8.63;5.90;;;;;;;1.81;47.92;99515.28;5047501;28;20052;-82
2022/03/06 18:46:57;;;;;;;8.30;6.05;;;;;;;1.86;48.67;99526.50;5049836;28;20068;-82
2022/03/06 18:49:26;;;;;;;10.45;6.75;;;;;;;1.73;49.14;99522.13;5050809;28;20558;-83
2022/03/06 18:51:54;;;;;;;12.13;6.70;;;;;;;1.84;48.95;99536.50;5047742;28;20068;-83
2022/03/06 18:54:21;;;;;;;8.90;6.25;;;;;;;1.85;49.24;99539.06;5048658;28;20053;-79
2022/03/06 18:56:47;;;;;;;8.10;6.53;;;;;;;1.86;48.03;99523.81;5048577;28;20467;-82
2022/03/06 18:59:16;;;;;;;9.48;6.32;;;;;;;1.74;48.69;99513.06;5048853;28;20530;-82
2022/03/06 19:01:46;;;;;;;9.43;6.75;;;;;;;1.77;49.33;99534.28;5046749;28;20056;-82
2022/03/06 19:04:14;;;;;;;10.90;6.10;;;;;;;1.82;48.31;99525.03;5047938;28;20496;-82
2022/03/06 19:06:41;;;;;;;11.32;7.10;;;;;;;1.80;48.38;99535.88;5049414;28;20492;-82
2022/03/06 19:09:09;;;;;;;7.85;5.78;;;;;;;1.72;48.54;99520.41;5047764;28;20045;-83
2022/03/06 19:11:36;;;;;;;20.27;10.38;;;;;;;1.77;49.23;99520.88;5048831;28;20060;-80
2022/03/06 19:14:03;;;;;;;16.10;9.32;;;;;;;1.86;48.15;99526.50;5047987;28;20057;-83
2022/03/06 19:16:31;;;;;;;11.05;6.70;;;;;;;1.77;49.09;99515.53;5049289;28;20471;-81
2022/03/06 19:18:58;;;;;;;10.70;6.80;;;;;;;1.70;49.93;99526.84;5047548;28;20049;-81
2022/03/06 19:21:25;;;;;;;11.68;7.18;;;;;;;1.72;49.05;99532.97;5049532;28;20076;-81
2022/03/06 19:23:53;;;;;;;9.52;6.43;;;;;;;1.63;48.58;99520.28;5047431;28;20136;-80
2022/03/06 19:26:20;;;;;;;10.82;6.30;;;;;;;1.59;49.07;99525.00;5053644;28;20055;-81
2022/03/06 19:28:47;;;;;;;12.00;6.88;;;;;;;1.61;49.72;99531.09;5048982;28;20099;-82
2022/03/06 19:31:14;;;;;;;12.90;6.30;;;;;;;1.42;48.75;99500.34;5047163;28;20527;-81
2022/03/06 19:33:46;;;;;;;13.25;6.50;;;;;;;1.51;49.96;99511.34;5047314;28;20047;-81
2022/03/06 19:36:13;;;;;;;10.95;6.25;;;;;;;1.50;49.80;99523.03;5048007;28;20080;-81
2022/03/06 19:38:40;;;;;;;9.38;5.38;;;;;;;1.49;49.59;99532.03;5039306;28;20045;-81
2022/03/06 19:41:07;;;;;;;9.05;6.85;;;;;;;1.51;49.90;99539.00;5043330;28;20053;-81
2022/03/06 19:43:33;;;;;;;10.93;6.15;;;;;;;1.40;49.20;99517.50;5047246;28;20049;-80
2022/03/06 19:46:02;;;;;;;11.80;7.60;;;;;;;1.46;49.17;99534.94;5047760;28;20053;-81
2022/03/06 19:48:32;;;;;;;9.48;5.57;;;;;;;1.24;49.25;99510.66;5047418;28;20052;-85
2022/03/06 19:51:01;;;;;;;11.20;6.80;;;;;;;1.36;49.46;99521.44;5047814;28;20498;-81
2022/03/06 19:53:28;;;;;;;11.03;7.20;;;;;;;1.28;50.25;99518.47;5047287;28;20045;-82
2022/03/06 19:55:54;;;;;;;10.15;6.35;;;;;;;1.40;49.14;99531.78;5048080;28;20778;-82
2022/03/06 19:58:21;;;;;;;12.35;7.28;;;;;;;1.39;48.34;99538.09;5062274;28;20381;-82
2022/03/06 20:00:48;;;;;;;7.68;6.13;;;;;;;1.36;48.97;99518.75;5049253;28;20453;-82
2022/03/06 20:03:15;;;;;;;12.48;7.03;;;;;;;1.31;48.75;99512.88;5045062;28;20048;-82
2022/03/06 20:05:45;;;;;;;11.10;7.18;;;;;;;1.30;48.61;99514.69;5047924;28;20053;-81
2022/03/06 20:08:13;;;;;;;11.65;6.35;;;;;;;1.33;49.27;99519.81;5048088;28;20083;-79
2022/03/06 20:10:40;;;;;;;11.45;6.88;;;;;;;1.32;49.64;99515.44;5048745;28;20049;-82
2022/03/06 20:13:10;;;;;;;11.23;6.85;;;;;;;1.32;49.79;99530.66;5046568;28;20045;-81
2022/03/06 20:15:37;;;;;;;8.68;6.80;;;;;;;1.29;49.79;99530.88;5047553;28;20060;-82
2022/03/06 20:18:04;;;;;;;9.07;6.32;;;;;;;1.37;48.92;99541.84;5046979;28;20099;-82
2022/03/06 20:20:32;;;;;;;11.50;6.20;;;;;;;1.28;49.28;99534.53;5047887;28;20084;-82
2022/03/06 20:23:02;;;;;;;9.73;4.57;;;;;;;1.18;49.56;99524.53;5046356;28;20037;-82
2022/03/06 20:25:31;;;;;;;11.38;6.97;;;;;;;1.30;49.21;99540.66;5044097;28;20041;-82
2022/03/06 20:27:58;;;;;;;14.25;6.93;;;;;;;1.25;50.05;99535.63;5049144;28;20099;-82
2022/03/06 20:30:26;;;;;;;9.65;6.65;;;;;;;1.23;50.51;99542.91;5047870;28;20102;-82
2022/03/06 20:32:56;;;;;;;11.77;6.90;;;;;;;1.14;50.81;99538.25;5047616;28;20099;-82
2022/03/06 20:35:23;;;;;;;12.63;6.57;;;;;;;1.26;50.58;99564.09;5046224;28;20056;-82
2022/03/06 20:37:50;;;;;;;9.57;6.97;;;;;;;1.26;51.47;99560.59;5048169;28;20530;-82